createdAt,value
2022-10-07T00:03:39.306Z,4129
2022-10-07T00:08:51.831Z,4147
2022-10-07T00:14:03.927Z,4158
2022-10-07T00:19:16.284Z,4125
2022-10-07T00:24:28.871Z,4144
2022-10-07T00:29:41.021Z,4155
2022-10-07T00:34:53.459Z,4144
2022-10-07T00:40:05.716Z,4157
2022-10-07T00:45:18.190Z,4157
2022-10-07T00:50:30.584Z,4158
2022-10-07T00:55:43.036Z,4145
2022-10-07T01:00:55.159Z,4138
2022-10-07T01:06:07.689Z,4153
2022-10-07T01:11:20.083Z,4134
2022-10-07T01:16:32.321Z,4155
2022-10-07T01:21:44.571Z,4153
2022-10-07T01:26:56.759Z,4155
2022-10-07T01:32:09.204Z,4134
2022-10-07T01:37:21.440Z,4147
2022-10-07T01:42:33.691Z,4106
2022-10-07T01:47:46.342Z,4140
2022-10-07T01:52:58.493Z,4142
2022-10-07T01:58:10.661Z,4114
2022-10-07T02:03:23.197Z,4123
2022-10-07T02:08:35.464Z,4151
2022-10-07T02:13:47.664Z,4132
2022-10-07T02:18:59.851Z,4106
2022-10-07T02:24:12.190Z,4132
2022-10-07T02:29:24.451Z,4147
2022-10-07T02:34:36.846Z,4110
2022-10-07T02:39:49.193Z,4129
2022-10-07T02:45:01.423Z,4119
2022-10-07T02:50:13.941Z,4105
2022-10-07T02:55:26.405Z,4116
2022-10-07T03:00:38.554Z,4127
2022-10-07T03:05:50.907Z,4136
2022-10-07T03:11:03.249Z,4086
2022-10-07T03:16:15.827Z,4105
2022-10-07T03:21:27.970Z,4123
2022-10-07T03:26:40.309Z,4125
2022-10-07T03:31:52.833Z,4134
2022-10-07T03:37:05.020Z,4121
2022-10-07T03:42:17.398Z,4097
2022-10-07T03:47:29.799Z,4123
2022-10-07T03:52:42.441Z,4121
2022-10-07T03:57:59.240Z,4138
2022-10-07T04:03:07.166Z,4131
2022-10-07T04:08:19.712Z,4136
2022-10-07T04:13:32.153Z,4136
2022-10-07T04:18:44.663Z,4119
2022-10-07T04:23:56.971Z,4121
2022-10-07T04:29:09.424Z,4112
2022-10-07T04:34:21.556Z,4097
2022-10-07T04:39:56.373Z,4118
2022-10-07T04:44:46.385Z,4086
2022-10-07T04:49:58.378Z,4131
2022-10-07T04:55:10.841Z,4132
2022-10-07T05:00:23.376Z,4084
2022-10-07T05:05:35.661Z,4092
2022-10-07T05:10:47.896Z,4092
2022-10-07T05:16:00.197Z,4078
2022-10-07T05:21:12.517Z,4106
2022-10-07T05:26:24.949Z,4131
2022-10-07T05:31:37.194Z,4129
2022-10-07T05:36:49.501Z,4065
2022-10-07T05:42:01.941Z,4105
2022-10-07T05:47:14.358Z,4125
2022-10-07T05:52:26.640Z,4108
2022-10-07T05:57:39.163Z,4118
2022-10-07T06:02:51.926Z,4078
2022-10-07T06:08:04.073Z,4062
2022-10-07T06:13:16.485Z,4123
2022-10-07T06:18:28.958Z,4123
2022-10-07T06:23:41.239Z,4097
2022-10-07T06:28:53.671Z,4080
2022-10-07T06:34:06.112Z,4078
2022-10-07T06:39:18.423Z,4114
2022-10-07T06:44:30.893Z,4093
2022-10-07T06:49:43.496Z,4095
2022-10-07T06:54:55.815Z,4099
2022-10-07T07:00:08.214Z,4118
2022-10-07T07:05:20.557Z,4114
2022-10-07T07:10:32.965Z,4049
2022-10-07T07:15:45.591Z,4116
2022-10-07T07:20:58.003Z,4073
2022-10-07T07:26:10.322Z,4071
2022-10-07T07:31:22.964Z,4116
2022-10-07T07:36:35.307Z,4116
2022-10-07T07:41:47.778Z,4088
2022-10-07T07:46:59.879Z,4116
2022-10-07T07:52:12.254Z,4093
2022-10-07T08:02:36.775Z,4084
2022-10-07T08:07:49.181Z,4080
2022-10-07T08:13:01.434Z,4062
2022-10-07T08:18:13.682Z,4114
2022-10-07T08:23:26.557Z,4065
2022-10-07T08:28:39.039Z,4118
2022-10-07T08:33:51.364Z,4065
2022-10-07T08:39:03.603Z,4067
2022-10-07T08:44:16.971Z,4080
2022-10-07T08:49:28.437Z,4127
2022-10-07T08:54:40.790Z,4060
2022-10-07T08:59:53.191Z,4103
2022-10-07T09:05:05.671Z,4136
2022-10-07T09:10:18.053Z,4118
2022-10-07T09:15:30.397Z,4145
2022-10-07T09:20:42.868Z,4149
2022-10-07T09:25:55.309Z,4157
2022-10-07T09:31:07.915Z,4119
2022-10-07T09:36:20.679Z,4131
2022-10-07T09:41:33.121Z,4158
2022-10-07T09:46:45.414Z,4162
2022-10-07T09:51:57.757Z,4149
2022-10-07T09:57:10.205Z,4188
2022-10-07T10:02:22.809Z,4194
2022-10-07T10:07:34.928Z,4194
2022-10-07T10:12:47.685Z,4183
2022-10-07T10:17:59.854Z,4190
2022-10-07T10:23:12.186Z,4158
2022-10-07T10:28:24.896Z,4188
2022-10-07T10:33:37.030Z,4203
2022-10-07T10:38:49.374Z,4199
2022-10-07T10:44:01.891Z,4211
2022-10-07T10:49:14.425Z,4214
2022-10-07T10:54:26.543Z,4214
2022-10-07T10:59:38.870Z,4216
2022-10-07T11:04:51.540Z,4224
2022-10-07T11:10:03.696Z,4225
2022-10-07T11:15:16.154Z,4225
2022-10-07T11:20:28.581Z,4203
2022-10-07T11:25:40.917Z,4227
2022-10-07T11:30:53.331Z,4196
2022-10-07T11:36:05.708Z,4227
2022-10-07T11:41:19.315Z,4231
2022-10-07T11:46:31.821Z,4211
2022-10-07T11:51:44.261Z,4235
2022-10-07T11:56:56.901Z,4224
2022-10-07T12:02:09.256Z,4237
2022-10-07T12:07:21.560Z,4225
2022-10-07T12:12:33.960Z,4177
2022-10-07T12:17:46.298Z,4185
2022-10-07T12:22:58.744Z,4237
2022-10-07T12:28:11.365Z,4248
2022-10-07T12:33:23.787Z,4227
2022-10-07T12:38:35.984Z,4246
2022-10-07T12:43:48.363Z,4231
2022-10-07T12:49:00.662Z,4251
2022-10-07T12:54:13.053Z,4240
2022-10-07T12:59:25.749Z,4242
2022-10-07T13:04:38.839Z,4242
2022-10-07T13:09:51.561Z,4235
2022-10-07T13:15:03.883Z,4244
2022-10-07T13:20:16.219Z,4194
2022-10-07T13:25:28.581Z,4244
2022-10-07T13:30:40.879Z,4225
2022-10-07T13:35:53.280Z,4227
2022-10-07T13:41:05.320Z,4198
2022-10-07T13:46:19.132Z,4244
2022-10-07T13:51:32.212Z,4246
2022-10-07T13:56:45.027Z,4216
2022-10-07T14:01:57.700Z,4244
2022-10-07T14:07:09.696Z,4253
2022-10-07T14:12:21.885Z,4218
2022-10-07T14:17:34.431Z,4242
2022-10-07T14:22:47.516Z,4244
2022-10-07T14:27:59.825Z,4244
2022-10-07T14:33:12.094Z,4246
2022-10-07T14:38:24.645Z,4233
2022-10-07T14:43:37.049Z,4209
2022-10-07T14:48:49.185Z,4231
2022-10-07T14:54:01.535Z,4194
2022-10-07T14:59:13.822Z,4218
2022-10-07T15:04:25.932Z,4224
2022-10-07T15:09:38.246Z,4233
2022-10-07T15:14:50.699Z,4255
2022-10-07T15:20:03.222Z,4244
2022-10-07T15:25:15.993Z,4255
2022-10-07T15:30:28.478Z,4244
2022-10-07T15:35:40.924Z,4244
2022-10-07T15:40:53.178Z,4199
2022-10-07T15:46:05.442Z,4235
2022-10-07T15:51:17.882Z,4255
2022-10-07T15:56:30.465Z,4250
2022-10-07T16:01:42.867Z,4211
2022-10-07T16:06:55.076Z,4238
2022-10-07T16:12:07.490Z,4225
2022-10-07T16:17:19.579Z,4222
2022-10-07T16:22:31.920Z,4222
2022-10-07T16:27:44.412Z,4218
2022-10-07T16:32:56.283Z,4207
2022-10-07T16:38:08.591Z,4201
2022-10-07T16:43:21.120Z,4218
2022-10-07T16:48:34.343Z,4198
2022-10-07T16:53:46.575Z,4224
2022-10-07T16:58:58.998Z,4214
2022-10-07T17:04:11.968Z,4225
2022-10-07T17:09:24.162Z,4205
2022-10-07T17:14:36.410Z,4220
2022-10-07T17:19:48.617Z,4192
2022-10-07T17:30:13.405Z,4175
2022-10-07T17:35:25.526Z,4216
2022-10-07T17:40:37.990Z,4218
2022-10-07T17:45:50.352Z,4185
2022-10-07T17:51:02.803Z,4201
2022-10-07T17:56:15.185Z,4214
2022-10-07T18:01:27.573Z,4209
2022-10-07T18:06:39.798Z,4212
2022-10-07T18:11:52.124Z,4192
2022-10-07T18:17:04.290Z,4199
2022-10-07T18:22:16.496Z,4207
2022-10-07T18:27:28.728Z,4207
2022-10-07T18:32:41.145Z,4158
2022-10-07T18:37:53.369Z,4205
2022-10-07T18:43:05.545Z,4205
2022-10-07T18:48:17.804Z,4179
2022-10-07T18:53:30.119Z,4192
2022-10-07T18:58:42.516Z,4190
2022-10-07T19:03:54.862Z,4198
2022-10-07T19:09:07.189Z,4196
2022-10-07T19:14:19.415Z,4190
2022-10-07T19:19:31.711Z,4199
2022-10-07T19:24:44.157Z,4185
2022-10-07T19:29:56.488Z,4186
2022-10-07T19:35:08.922Z,4170
2022-10-07T19:40:21.017Z,4183
2022-10-07T19:45:33.493Z,4185
2022-10-07T19:50:45.911Z,4132
2022-10-07T19:55:58.323Z,4185
2022-10-07T20:01:10.475Z,4194
2022-10-07T20:06:22.668Z,4194
2022-10-07T20:11:35.077Z,4194
2022-10-07T20:16:47.536Z,4175
2022-10-07T20:21:59.488Z,4171
2022-10-07T20:27:11.768Z,4166
2022-10-07T20:32:24.152Z,4181
2022-10-07T20:37:36.610Z,4194
2022-10-07T20:42:49.159Z,4192
2022-10-07T20:48:01.037Z,4095
2022-10-07T20:53:13.257Z,4194
2022-10-07T20:58:25.981Z,4190
2022-10-07T21:03:38.413Z,4164
2022-10-07T21:08:50.867Z,4190
2022-10-07T21:14:03.099Z,4173
2022-10-07T21:19:15.585Z,4188
2022-10-07T21:24:27.952Z,4173
2022-10-07T21:29:41.132Z,4173
2022-10-07T21:34:52.757Z,4177
2022-10-07T21:40:04.998Z,4171
2022-10-07T21:50:29.641Z,4145
2022-10-07T21:55:41.984Z,4186
2022-10-07T22:00:54.127Z,4155
2022-10-07T22:06:06.549Z,4171
2022-10-07T22:11:18.928Z,4157
2022-10-07T22:16:31.198Z,4168
2022-10-07T22:21:43.552Z,4155
2022-10-07T22:26:56.129Z,4166
2022-10-07T22:32:08.184Z,4164
2022-10-07T22:37:20.628Z,4177
2022-10-07T22:42:33.092Z,4166
2022-10-07T22:47:45.258Z,4155
2022-10-07T22:52:57.466Z,4121
2022-10-07T22:58:09.952Z,4155
2022-10-07T23:03:22.330Z,4177
2022-10-07T23:08:34.684Z,4158
2022-10-07T23:13:47.119Z,4157
2022-10-07T23:18:59.525Z,4134
2022-10-07T23:24:12.051Z,4173
2022-10-07T23:29:24.510Z,4140
2022-10-07T23:34:36.904Z,4132
2022-10-07T23:39:49.132Z,4142
2022-10-07T23:45:01.497Z,4149
2022-10-07T23:50:13.774Z,4155
2022-10-07T23:55:26.350Z,4144
